Time;durP1;ratioP1;P1;durP2;ratioP2;P2;SDS_P1;SDS_P2;PMS_P1;PMS_P2;Temp;Humidity;BMP_temperature;BMP_pressure;BME280_temperature;BME280_humidity;BME280_pressure;Samples;Min_cycle;Max_cycle;Signal;HPM_P1;HPM_P2
2021/12/05 00:19:52;;;;;;;17.90;17.10;;;;;;;;;;5011416;28;20612;-76
2021/12/05 00:22:25;;;;;;;24.43;23.23;;;;;;;;;;5083925;28;20675;-77
2021/12/05 00:24:55;;;;;;;17.90;17.10;;;;;;;;;;5093484;28;20186;-76
2021/12/05 00:27:27;;;;;;;18.43;17.63;;;;;;;;;;5093393;28;20269;-77
2021/12/05 00:30:03;;;;;;;18.93;18.03;;;;;;;;;;5092800;28;20298;-77
2021/12/05 00:32:37;;;;;;;18.87;17.97;;;;;;;;;;5093304;28;20243;-77
2021/12/05 00:35:33;;;;;;;18.03;17.23;;;;;;;;;;5093254;28;20214;-77
2021/12/05 00:47:00;;;;;;;15.40;14.80;;;;;;;;;;5110460;27;20569;-76
2021/12/05 00:49:58;;;;;;;16.73;16.07;;;;;;;;;;5110325;28;20284;-76
2021/12/05 00:55:38;;;;;;;16.00;15.40;;;;;;;;;;5061691;28;20276;-77
2021/12/05 01:01:16;;;;;;;16.60;15.90;;;;;;;;;;5068290;28;20197;-76
2021/12/05 01:09:43;;;;;;;16.33;15.63;;;;;;;;;;5043636;28;20202;-77
2021/12/05 01:15:05;;;;;;;17.60;16.80;;;;;;;;;;5102274;28;20189;-76
2021/12/05 01:17:38;;;;;;;18.10;17.30;;;;;;;;;;5109475;28;20195;-76
2021/12/05 01:20:10;;;;;;;18.03;17.23;;;;;;;;;;5110413;28;20270;-76
2021/12/05 01:22:42;;;;;;;15.60;15.00;;;;;;;;;;5109663;28;20193;-77
2021/12/05 01:25:19;;;;;;;14.53;14.03;;;;;;;;;;5109531;28;20256;-77
2021/12/05 01:27:52;;;;;;;15.00;14.40;;;;;;;;;;5109281;28;20690;-76
2021/12/05 01:30:28;;;;;;;15.10;14.50;;;;;;;;;;5109495;28;20318;-77
2021/12/05 01:33:02;;;;;;;15.47;14.87;;;;;;;;;;5109463;28;20264;-77
2021/12/05 01:35:47;;;;;;;15.63;15.03;;;;;;;;;;5109072;28;20185;-77
2021/12/05 01:38:24;;;;;;;15.37;14.77;;;;;;;;;;5109383;28;20194;-77
2021/12/05 01:41:04;;;;;;;15.53;14.93;;;;;;;;;;5108954;28;20563;-77
2021/12/05 02:08:54;;;;;;;14.40;13.80;;;;;;;;;;5019809;28;20216;-76
2021/12/05 02:39:17;;;;;;;15.00;14.40;;;;;;;;;;5013094;28;20196;-77
2021/12/05 02:41:46;;;;;;;14.90;14.30;;;;;;;;;;5012314;28;20201;-76
2021/12/05 02:44:20;;;;;;;14.90;14.30;;;;;;;;;;5012113;28;20197;-77
2021/12/05 02:46:49;;;;;;;14.93;14.33;;;;;;;;;;5012102;28;20259;-76
2021/12/05 02:49:16;;;;;;;18.80;17.90;;;;;;;;;;5012045;28;20192;-77
2021/12/05 02:51:51;;;;;;;14.37;13.83;;;;;;;;;;5012222;28;20207;-78
2021/12/05 02:54:19;;;;;;;19.47;17.73;;;;;;;;;;5011985;28;20188;-77
2021/12/05 02:56:49;;;;;;;16.83;16.13;;;;;;;;;;5011994;28;20243;-77
2021/12/05 02:59:23;;;;;;;15.70;15.07;;;;;;;;;;5011959;28;20643;-77
2021/12/05 03:01:54;;;;;;;18.20;17.40;;;;;;;;;;5011906;28;20591;-76
2021/12/05 03:04:23;;;;;;;17.80;17.00;;;;;;;;;;5012038;28;20642;-77
2021/12/05 03:06:51;;;;;;;17.50;16.80;;;;;;;;;;5011672;28;20238;-76
2021/12/05 03:09:20;;;;;;;16.60;15.90;;;;;;;;;;5029125;28;20280;-77
2021/12/05 03:11:47;;;;;;;16.60;15.90;;;;;;;;;;5093571;28;20260;-78
2021/12/05 03:14:14;;;;;;;17.53;16.73;;;;;;;;;;5093528;28;20281;-77
2021/12/05 03:16:42;;;;;;;16.90;16.20;;;;;;;;;;5093433;28;20190;-77
2021/12/05 03:19:09;;;;;;;16.00;15.40;;;;;;;;;;5093717;28;20194;-76
2021/12/05 03:21:36;;;;;;;15.20;14.60;;;;;;;;;;5093432;28;20239;-77
2021/12/05 03:24:04;;;;;;;15.90;15.30;;;;;;;;;;5093361;28;20285;-77
2021/12/05 03:26:33;;;;;;;15.77;15.17;;;;;;;;;;5093519;28;20232;-77
2021/12/05 03:29:01;;;;;;;15.80;15.20;;;;;;;;;;5093531;28;20243;-77
2021/12/05 03:31:29;;;;;;;14.67;14.17;;;;;;;;;;5093501;28;20278;-77
2021/12/05 03:33:56;;;;;;;16.37;15.73;;;;;;;;;;5093456;28;20229;-77
2021/12/05 03:36:23;;;;;;;14.43;13.93;;;;;;;;;;5093159;28;20234;-76
2021/12/05 03:38:50;;;;;;;14.80;14.20;;;;;;;;;;5093407;28;20248;-76
2021/12/05 03:41:17;;;;;;;16.00;15.40;;;;;;;;;;5092999;28;20236;-77
2021/12/05 03:43:47;;;;;;;18.57;17.57;;;;;;;;;;5093314;28;20227;-76
2021/12/05 03:46:13;;;;;;;16.80;16.10;;;;;;;;;;5092685;28;20269;-77
2021/12/05 03:48:42;;;;;;;16.30;15.60;;;;;;;;;;5093260;28;20229;-77
2021/12/05 03:51:11;;;;;;;17.20;16.50;;;;;;;;;;5092887;28;20247;-77
2021/12/05 03:53:37;;;;;;;18.37;17.57;;;;;;;;;;5092791;28;20240;-76
2021/12/05 03:56:05;;;;;;;19.73;18.83;;;;;;;;;;5093089;28;20204;-76
2021/12/05 03:58:33;;;;;;;15.97;15.30;;;;;;;;;;5093013;28;20190;-77
2021/12/05 04:01:02;;;;;;;17.00;16.30;;;;;;;;;;5092993;28;20566;-77
2021/12/05 04:03:29;;;;;;;16.30;15.60;;;;;;;;;;5092623;28;20691;-76
2021/12/05 04:05:56;;;;;;;19.10;18.20;;;;;;;;;;5092872;28;20338;-76
2021/12/05 04:08:24;;;;;;;16.30;15.60;;;;;;;;;;5092864;28;20221;-77
2021/12/05 04:10:53;;;;;;;16.50;15.80;;;;;;;;;;5092502;28;20232;-77
2021/12/05 04:13:19;;;;;;;15.40;14.80;;;;;;;;;;5092809;28;20274;-77
2021/12/05 04:15:46;;;;;;;15.40;14.80;;;;;;;;;;5093050;28;20620;-77
2021/12/05 04:18:15;;;;;;;15.00;14.40;;;;;;;;;;5092425;28;20715;-77
2021/12/05 04:20:41;;;;;;;14.50;14.00;;;;;;;;;;5092456;28;20289;-77
2021/12/05 04:23:08;;;;;;;14.10;13.60;;;;;;;;;;5092659;28;20225;-78
2021/12/05 04:25:37;;;;;;;13.43;12.93;;;;;;;;;;5092240;28;20257;-78
2021/12/05 04:28:04;;;;;;;14.00;13.50;;;;;;;;;;5093142;28;20201;-77
2021/12/05 04:30:31;;;;;;;14.20;13.70;;;;;;;;;;5092657;28;20225;-77
2021/12/05 04:32:58;;;;;;;14.67;14.17;;;;;;;;;;5092543;28;20194;-76
2021/12/05 04:35:28;;;;;;;13.50;13.00;;;;;;;;;;5092240;28;20197;-77
2021/12/05 04:37:55;;;;;;;14.53;13.73;;;;;;;;;;5092475;28;20200;-77
2021/12/05 04:40:24;;;;;;;13.30;12.80;;;;;;;;;;5092137;28;20623;-77
2021/12/05 04:42:50;;;;;;;13.07;12.57;;;;;;;;;;5092174;28;20198;-77
2021/12/05 04:45:18;;;;;;;13.10;12.60;;;;;;;;;;5091939;28;20255;-77
2021/12/05 04:47:46;;;;;;;15.27;14.57;;;;;;;;;;5092407;28;20194;-76
2021/12/05 04:50:13;;;;;;;13.50;13.00;;;;;;;;;;5092066;28;20194;-77
2021/12/05 04:52:41;;;;;;;13.83;13.33;;;;;;;;;;5093163;28;20273;-77
2021/12/05 04:55:08;;;;;;;14.30;13.80;;;;;;;;;;5092345;28;20247;-77
2021/12/05 04:57:35;;;;;;;13.70;13.20;;;;;;;;;;5092251;28;20232;-77
2021/12/05 05:00:03;;;;;;;14.47;13.87;;;;;;;;;;5091980;28;20289;-77
2021/12/05 05:02:29;;;;;;;15.60;15.00;;;;;;;;;;5091870;28;20197;-76
2021/12/05 05:04:56;;;;;;;15.83;15.13;;;;;;;;;;5091902;28;20189;-77
2021/12/05 05:07:26;;;;;;;15.43;14.83;;;;;;;;;;5091946;28;20682;-77
2021/12/05 05:09:56;;;;;;;15.47;14.87;;;;;;;;;;5091892;28;20190;-77
2021/12/05 05:12:22;;;;;;;18.00;17.10;;;;;;;;;;5091834;28;20255;-78
2021/12/05 05:14:50;;;;;;;16.97;16.23;;;;;;;;;;5092094;28;20589;-77
2021/12/05 05:17:17;;;;;;;16.63;15.93;;;;;;;;;;5091837;28;20258;-76
2021/12/05 05:19:48;;;;;;;16.07;15.37;;;;;;;;;;5091752;28;20194;-77
2021/12/05 05:22:25;;;;;;;15.10;14.50;;;;;;;;;;5091841;28;20277;-77
2021/12/05 05:28:00;;;;;;;15.00;14.40;;;;;;;;;;5091883;28;20229;-77
2021/12/05 05:30:54;;;;;;;15.87;15.17;;;;;;;;;;5092020;28;20214;-76
2021/12/05 05:39:30;;;;;;;14.23;13.63;;;;;;;;;;5095845;28;20661;-77
2021/12/05 05:47:32;;;;;;;15.60;14.90;;;;;;;;;;5050763;28;20713;-76
2021/12/05 05:49:59;;;;;;;15.57;14.93;;;;;;;;;;5095623;28;20217;-77
2021/12/05 05:52:26;;;;;;;17.23;16.43;;;;;;;;;;5095401;28;20194;-77
2021/12/05 05:54:54;;;;;;;15.57;14.87;;;;;;;;;;5095155;28;20194;-77
2021/12/05 05:57:26;;;;;;;16.33;15.63;;;;;;;;;;5095314;28;20197;-77
2021/12/05 05:59:59;;;;;;;17.20;16.40;;;;;;;;;;5095385;28;20259;-78
2021/12/05 06:05:10;;;;;;;17.97;17.17;;;;;;;;;;5095328;28;20231;-76
2021/12/05 06:07:42;;;;;;;16.47;15.77;;;;;;;;;;5095037;28;20226;-76
2021/12/05 06:10:09;;;;;;;17.77;16.87;;;;;;;;;;5095032;28;20202;-77
2021/12/05 06:12:37;;;;;;;15.07;14.47;;;;;;;;;;5095112;28;20198;-77
2021/12/05 06:15:05;;;;;;;14.77;14.17;;;;;;;;;;5094739;28;20251;-77
2021/12/05 06:17:32;;;;;;;13.50;13.00;;;;;;;;;;5094677;28;20206;-77
2021/12/05 06:19:59;;;;;;;15.27;14.67;;;;;;;;;;5094568;28;20562;-77
2021/12/05 06:22:26;;;;;;;15.23;14.63;;;;;;;;;;5094593;28;20229;-77
2021/12/05 06:24:52;;;;;;;14.37;13.77;;;;;;;;;;5094580;28;20660;-77
2021/12/05 06:27:19;;;;;;;14.93;14.33;;;;;;;;;;5094745;28;20259;-77
2021/12/05 06:29:53;;;;;;;24.80;23.43;;;;;;;;;;5094765;28;20201;-76
2021/12/05 06:38:00;;;;;;;13.50;13.00;;;;;;;;;;5094747;28;20189;-76
2021/12/05 06:40:56;;;;;;;14.50;13.97;;;;;;;;;;5094607;28;20221;-77
2021/12/05 06:46:12;;;;;;;14.33;13.53;;;;;;;;;;5093967;28;20335;-77
2021/12/05 06:48:39;;;;;;;13.90;13.40;;;;;;;;;;5094160;28;20201;-76
2021/12/05 06:51:06;;;;;;;13.30;12.80;;;;;;;;;;5094322;28;20225;-77
2021/12/05 06:53:33;;;;;;;12.73;12.33;;;;;;;;;;5093978;28;20186;-76
2021/12/05 06:55:59;;;;;;;12.10;11.70;;;;;;;;;;5093968;28;20258;-77
2021/12/05 06:58:26;;;;;;;13.00;12.50;;;;;;;;;;5094146;28;20269;-77
2021/12/05 07:00:53;;;;;;;12.30;11.90;;;;;;;;;;5094185;28;20232;-77
2021/12/05 07:03:21;;;;;;;12.83;12.43;;;;;;;;;;5093757;28;20575;-76
2021/12/05 07:05:57;;;;;;;12.60;12.20;;;;;;;;;;5094011;28;20251;-77
2021/12/05 07:08:27;;;;;;;12.33;11.93;;;;;;;;;;5094066;28;20189;-77
2021/12/05 07:11:00;;;;;;;13.27;12.77;;;;;;;;;;5094006;28;20190;-77
2021/12/05 07:16:20;;;;;;;12.57;12.17;;;;;;;;;;5094241;28;20185;-76
2021/12/05 07:19:09;;;;;;;13.00;12.50;;;;;;;;;;5093527;28;20185;-76
2021/12/05 07:21:42;;;;;;;14.73;14.03;;;;;;;;;;5093542;28;20189;-77
2021/12/05 07:24:16;;;;;;;16.27;15.30;;;;;;;;;;5093409;28;20186;-77
2021/12/05 07:27:09;;;;;;;14.53;13.93;;;;;;;;;;5093285;28;20209;-77
2021/12/05 07:40:35;;;;;;;15.10;14.50;;;;;;;;;;5093556;28;20651;-77
2021/12/05 07:43:04;;;;;;;15.70;15.00;;;;;;;;;;5093290;28;20198;-76
2021/12/05 07:45:34;;;;;;;15.43;14.73;;;;;;;;;;5092785;28;20730;-76
2021/12/05 07:48:09;;;;;;;14.93;14.30;;;;;;;;;;5093251;28;20302;-77
2021/12/05 07:50:44;;;;;;;15.87;15.17;;;;;;;;;;5093304;28;20536;-77
2021/12/05 07:53:19;;;;;;;16.60;15.87;;;;;;;;;;5093177;28;20250;-76
2021/12/05 07:55:48;;;;;;;16.33;15.53;;;;;;;;;;5092329;28;20185;-76
2021/12/05 07:58:29;;;;;;;17.90;17.00;;;;;;;;;;5092655;28;20647;-77
2021/12/05 08:01:04;;;;;;;19.50;18.30;;;;;;;;;;5093125;28;20190;-76
2021/12/05 08:14:35;;;;;;;18.27;17.37;;;;;;;;;;5092927;28;20552;-77
2021/12/05 08:17:03;;;;;;;16.53;15.73;;;;;;;;;;5092490;28;20284;-77
2021/12/05 08:19:30;;;;;;;16.90;16.10;;;;;;;;;;5092673;28;20648;-77
2021/12/05 08:21:58;;;;;;;17.53;16.70;;;;;;;;;;5092315;28;20280;-77
2021/12/05 08:24:25;;;;;;;18.60;17.70;;;;;;;;;;5092653;28;20226;-77
2021/12/05 08:26:53;;;;;;;18.20;17.30;;;;;;;;;;5092203;28;20711;-77
2021/12/05 08:29:27;;;;;;;16.87;16.07;;;;;;;;;;5092333;28;20229;-76
2021/12/05 08:32:15;;;;;;;16.47;15.57;;;;;;;;;;5092757;28;20655;-77
2021/12/05 10:06:44;;;;;;;23.43;22.23;;;;;;;;;;5109809;28;20288;-77
2021/12/05 10:09:24;;;;;;;21.40;20.20;;;;;;;;;;5109588;28;20301;-77
2021/12/05 10:12:01;;;;;;;20.30;19.30;;;;;;;;;;5109259;28;20276;-76
2021/12/05 10:14:44;;;;;;;21.87;20.77;;;;;;;;;;5109212;28;20567;-77
2021/12/05 10:20:31;;;;;;;21.27;20.27;;;;;;;;;;5088414;27;20687;-77
2021/12/05 10:33:48;;;;;;;20.83;19.67;;;;;;;;;;5109496;28;20210;-77
2021/12/05 10:36:23;;;;;;;18.37;17.37;;;;;;;;;;5108760;28;20274;-76
2021/12/05 10:38:53;;;;;;;17.90;17.03;;;;;;;;;;5108669;28;20583;-76
2021/12/05 10:41:47;;;;;;;19.10;18.10;;;;;;;;;;5097415;28;20655;-77
2021/12/05 10:44:16;;;;;;;24.80;22.97;;;;;;;;;;5094968;28;20186;-77
2021/12/05 10:46:46;;;;;;;20.13;19.13;;;;;;;;;;5095255;28;20255;-77
2021/12/05 10:49:14;;;;;;;19.83;18.53;;;;;;;;;;5095213;28;20645;-76
2021/12/05 10:51:44;;;;;;;18.50;17.70;;;;;;;;;;5094753;28;20281;-77
2021/12/05 10:54:12;;;;;;;23.37;21.03;;;;;;;;;;5095346;28;20280;-77
2021/12/05 10:56:39;;;;;;;22.20;21.00;;;;;;;;;;5094976;28;20194;-77
2021/12/05 10:59:07;;;;;;;23.37;22.03;;;;;;;;;;5094697;28;20224;-76
2021/12/05 11:01:36;;;;;;;20.10;19.00;;;;;;;;;;5094898;28;20201;-76
2021/12/05 11:04:04;;;;;;;19.93;19.03;;;;;;;;;;5094939;28;20232;-77
2021/12/05 11:06:44;;;;;;;19.00;18.10;;;;;;;;;;5094484;28;20281;-77
2021/12/05 11:09:12;;;;;;;21.57;20.07;;;;;;;;;;5094728;28;20217;-77
2021/12/05 11:11:40;;;;;;;23.47;22.03;;;;;;;;;;5094339;28;20676;-78
2021/12/05 11:14:11;;;;;;;23.20;22.00;;;;;;;;;;5094722;28;20247;-77
2021/12/05 11:16:46;;;;;;;21.77;20.67;;;;;;;;;;5094713;28;20302;-77
2021/12/05 11:19:15;;;;;;;24.70;23.30;;;;;;;;;;5094691;28;20221;-77
2021/12/05 11:21:47;;;;;;;23.23;21.93;;;;;;;;;;5095036;28;20625;-77
2021/12/05 11:24:16;;;;;;;22.37;21.17;;;;;;;;;;5094264;28;20194;-77
2021/12/05 11:26:44;;;;;;;22.20;20.90;;;;;;;;;;5094184;28;20206;-76
2021/12/05 11:29:11;;;;;;;23.97;22.63;;;;;;;;;;5093954;28;20233;-77
2021/12/05 11:31:38;;;;;;;23.07;21.87;;;;;;;;;;5094039;28;20628;-75
2021/12/05 11:34:05;;;;;;;19.20;18.23;;;;;;;;;;5093976;28;20251;-77
2021/12/05 11:36:33;;;;;;;22.30;20.80;;;;;;;;;;5094286;28;20276;-76
2021/12/05 11:39:19;;;;;;;23.73;22.27;;;;;;;;;;5094266;28;20201;-78
2021/12/05 11:41:46;;;;;;;25.00;23.53;;;;;;;;;;5094293;28;20221;-78
2021/12/05 11:44:17;;;;;;;21.90;20.80;;;;;;;;;;5094093;28;20251;-77
2021/12/05 11:46:44;;;;;;;20.40;19.40;;;;;;;;;;5094314;28;20194;-78
2021/12/05 11:49:16;;;;;;;20.60;19.50;;;;;;;;;;5093649;28;20721;-77
2021/12/05 11:51:44;;;;;;;23.83;22.53;;;;;;;;;;5092914;28;20190;-78
2021/12/05 11:54:14;;;;;;;23.57;22.27;;;;;;;;;;5093513;28;20240;-77
2021/12/05 11:56:43;;;;;;;23.47;22.20;;;;;;;;;;5093867;28;20229;-77
2021/12/05 11:59:12;;;;;;;21.67;20.67;;;;;;;;;;5093545;28;20713;-79
2021/12/05 12:01:41;;;;;;;24.13;22.90;;;;;;;;;;5093432;28;20244;-77
2021/12/05 12:04:08;;;;;;;21.87;20.77;;;;;;;;;;5093714;28;20213;-78
2021/12/05 12:06:35;;;;;;;21.17;20.07;;;;;;;;;;5093280;28;20229;-77
2021/12/05 12:09:02;;;;;;;22.40;21.27;;;;;;;;;;5093590;28;20280;-77
2021/12/05 12:11:31;;;;;;;22.33;21.13;;;;;;;;;;5093578;28;20675;-78
2021/12/05 12:13:57;;;;;;;21.50;20.40;;;;;;;;;;5093225;28;20634;-78
2021/12/05 12:16:24;;;;;;;21.30;20.20;;;;;;;;;;5093549;28;20326;-78
2021/12/05 12:18:52;;;;;;;21.73;20.33;;;;;;;;;;5093455;28;20225;-78
2021/12/05 12:21:20;;;;;;;19.97;18.87;;;;;;;;;;5093456;28;20198;-77
2021/12/05 12:23:48;;;;;;;20.45;19.45;;;;;;;;;;5093114;28;20683;-78
2021/12/05 12:26:15;;;;;;;25.83;23.93;;;;;;;;;;5093403;28;20232;-77
2021/12/05 12:28:43;;;;;;;21.17;20.07;;;;;;;;;;5092738;28;20321;-77
2021/12/05 12:31:12;;;;;;;22.70;21.50;;;;;;;;;;5092887;28;20201;-76
2021/12/05 12:33:41;;;;;;;21.80;20.20;;;;;;;;;;5093217;28;20194;-75
2021/12/05 12:36:08;;;;;;;24.30;22.53;;;;;;;;;;5093051;28;20272;-77
2021/12/05 12:38:36;;;;;;;21.60;20.53;;;;;;;;;;5093103;28;20246;-77
2021/12/05 12:41:04;;;;;;;22.77;21.47;;;;;;;;;;5093006;28;20194;-77
2021/12/05 12:43:40;;;;;;;20.40;19.30;;;;;;;;;;5092990;28;20197;-76
2021/12/05 12:46:18;;;;;;;21.60;20.50;;;;;;;;;;5093001;28;20297;-76
2021/12/05 12:48:45;;;;;;;21.50;20.40;;;;;;;;;;5092634;28;20202;-76
2021/12/05 12:51:26;;;;;;;26.87;25.20;;;;;;;;;;5092512;28;20320;-77
2021/12/05 12:53:55;;;;;;;23.40;22.20;;;;;;;;;;5092577;28;20182;-77
2021/12/05 12:56:23;;;;;;;25.73;24.27;;;;;;;;;;5092482;28;20755;-76
2021/12/05 12:58:51;;;;;;;21.33;20.23;;;;;;;;;;5092767;28;20198;-76
2021/12/05 13:01:35;;;;;;;20.83;19.73;;;;;;;;;;5093261;28;20739;-77
2021/12/05 13:10:04;;;;;;;23.90;22.70;;;;;;;;;;5044475;28;20221;-76
2021/12/05 13:12:32;;;;;;;23.10;21.90;;;;;;;;;;5092335;28;20616;-77
2021/12/05 13:15:06;;;;;;;23.43;22.20;;;;;;;;;;5092539;28;20285;-76
2021/12/05 13:17:41;;;;;;;24.60;23.33;;;;;;;;;;5092844;28;20646;-76
2021/12/05 13:20:09;;;;;;;25.10;23.80;;;;;;;;;;5092230;28;20197;-76
2021/12/05 13:22:58;;;;;;;26.23;24.90;;;;;;;;;;5092239;28;20197;-76
2021/12/05 13:25:25;;;;;;;25.40;24.10;;;;;;;;;;5092538;28;20186;-76
2021/12/05 13:27:52;;;;;;;24.07;22.80;;;;;;;;;;5092435;28;20193;-76
2021/12/05 13:30:28;;;;;;;24.77;23.37;;;;;;;;;;5091907;28;20320;-76
2021/12/05 13:33:10;;;;;;;24.03;22.77;;;;;;;;;;5092411;28;20190;-77
2021/12/05 13:35:40;;;;;;;25.80;24.40;;;;;;;;;;5092173;28;20706;-76
2021/12/05 13:38:07;;;;;;;23.97;22.67;;;;;;;;;;5091980;28;20189;-77
2021/12/05 13:40:38;;;;;;;25.00;23.70;;;;;;;;;;5092336;28;20224;-77
2021/12/05 13:43:08;;;;;;;20.13;19.13;;;;;;;;;;5092842;28;20198;-76
2021/12/05 13:45:41;;;;;;;21.23;20.13;;;;;;;;;;5092561;28;20194;-76
2021/12/05 13:48:18;;;;;;;24.87;23.57;;;;;;;;;;5092025;28;20640;-76
2021/12/05 13:50:51;;;;;;;21.87;20.37;;;;;;;;;;5092191;28;20225;-76
2021/12/05 13:53:22;;;;;;;20.37;19.27;;;;;;;;;;5091947;28;20189;-76
2021/12/05 13:55:56;;;;;;;23.00;21.57;;;;;;;;;;5092166;28;20266;-75
2021/12/05 13:58:24;;;;;;;21.20;20.07;;;;;;;;;;5091907;28;20247;-76
2021/12/05 14:00:53;;;;;;;20.93;19.83;;;;;;;;;;5091834;28;20198;-76
2021/12/05 14:03:39;;;;;;;22.67;21.57;;;;;;;;;;5091837;28;20194;-75
2021/12/05 14:06:23;;;;;;;22.83;21.77;;;;;;;;;;5092071;28;20193;-76
2021/12/05 14:08:49;;;;;;;24.07;22.60;;;;;;;;;;5092038;28;20189;-76
2021/12/05 14:11:16;;;;;;;22.10;21.00;;;;;;;;;;5091674;28;20626;-76
2021/12/05 14:13:43;;;;;;;22.77;21.10;;;;;;;;;;5091623;28;20664;-76
2021/12/05 14:16:11;;;;;;;23.87;22.10;;;;;;;;;;5094033;28;20198;-75
2021/12/05 14:18:38;;;;;;;21.47;20.17;;;;;;;;;;5095463;28;20237;-76
2021/12/05 14:21:11;;;;;;;20.67;19.57;;;;;;;;;;5095423;28;20198;-76
2021/12/05 14:23:39;;;;;;;20.13;18.73;;;;;;;;;;5095470;28;20194;-76
2021/12/05 14:26:13;;;;;;;20.00;18.57;;;;;;;;;;5095678;28;20276;-76
2021/12/05 14:28:40;;;;;;;18.03;16.97;;;;;;;;;;5095149;28;20236;-76
2021/12/05 14:31:07;;;;;;;19.67;18.57;;;;;;;;;;5095109;28;20640;-76
2021/12/05 14:33:46;;;;;;;22.03;20.93;;;;;;;;;;5095490;28;20233;-75
2021/12/05 14:36:19;;;;;;;19.50;18.70;;;;;;;;;;5095486;28;20200;-76
2021/12/05 14:38:47;;;;;;;20.43;19.53;;;;;;;;;;5095174;28;20240;-76
2021/12/05 14:41:14;;;;;;;20.10;18.93;;;;;;;;;;5095006;28;20284;-75
2021/12/05 14:43:41;;;;;;;17.60;16.87;;;;;;;;;;5094985;28;20197;-76
2021/12/05 14:46:08;;;;;;;17.63;16.87;;;;;;;;;;5094961;28;20280;-75
2021/12/05 14:48:34;;;;;;;18.70;17.80;;;;;;;;;;5095229;28;20197;-76
2021/12/05 14:51:02;;;;;;;20.10;18.67;;;;;;;;;;5095147;28;20260;-76
2021/12/05 14:53:29;;;;;;;19.50;18.40;;;;;;;;;;5094801;28;20752;-75
2021/12/05 14:55:58;;;;;;;18.77;17.80;;;;;;;;;;5094757;28;20189;-76
2021/12/05 14:58:28;;;;;;;20.33;18.97;;;;;;;;;;5095017;28;20198;-76
2021/12/05 15:00:57;;;;;;;19.13;18.07;;;;;;;;;;5095069;28;20190;-75
2021/12/05 15:03:25;;;;;;;17.47;16.73;;;;;;;;;;5095006;28;20194;-76
2021/12/05 15:05:53;;;;;;;17.20;16.40;;;;;;;;;;5094591;28;20655;-76
2021/12/05 15:08:22;;;;;;;17.27;16.43;;;;;;;;;;5094574;28;20229;-76
2021/12/05 15:10:52;;;;;;;19.60;18.03;;;;;;;;;;5094410;28;20222;-75
2021/12/05 15:13:20;;;;;;;21.67;19.97;;;;;;;;;;5094544;28;20221;-74
2021/12/05 15:15:47;;;;;;;19.43;18.33;;;;;;;;;;5094761;28;20655;-76
2021/12/05 15:18:15;;;;;;;20.30;18.97;;;;;;;;;;5094367;28;20289;-76
2021/12/05 15:20:42;;;;;;;19.00;17.90;;;;;;;;;;5094325;28;20205;-76
2021/12/05 15:23:10;;;;;;;19.53;18.53;;;;;;;;;;5094577;28;20665;-76
2021/12/05 15:25:38;;;;;;;16.77;16.07;;;;;;;;;;5094229;28;20284;-76
2021/12/05 15:28:06;;;;;;;19.60;18.37;;;;;;;;;;5094102;28;20193;-75
2021/12/05 15:30:35;;;;;;;21.63;19.87;;;;;;;;;;5094423;28;20217;-75
2021/12/05 15:33:03;;;;;;;20.37;18.70;;;;;;;;;;5094377;28;20290;-73
2021/12/05 15:35:30;;;;;;;16.87;16.17;;;;;;;;;;5094351;28;20579;-76
2021/12/05 15:37:57;;;;;;;18.57;17.50;;;;;;;;;;5094005;28;20194;-74
2021/12/05 15:40:25;;;;;;;21.33;19.63;;;;;;;;;;5093924;28;20236;-74
2021/12/05 15:42:57;;;;;;;19.70;18.50;;;;;;;;;;5094233;28;20252;-76
2021/12/05 15:45:24;;;;;;;18.37;17.33;;;;;;;;;;5094122;28;20264;-76
2021/12/05 15:47:52;;;;;;;16.23;15.37;;;;;;;;;;5093762;28;20240;-76
2021/12/05 15:50:20;;;;;;;16.37;15.57;;;;;;;;;;5093908;28;20228;-76
2021/12/05 15:52:48;;;;;;;16.63;15.57;;;;;;;;;;5094026;28;20198;-75
2021/12/05 15:55:21;;;;;;;16.53;15.83;;;;;;;;;;5093617;28;20289;-76
2021/12/05 15:57:49;;;;;;;14.60;14.10;;;;;;;;;;5093667;28;20186;-76
2021/12/05 16:00:18;;;;;;;16.53;14.90;;;;;;;;;;5093876;28;20247;-75
2021/12/05 16:02:48;;;;;;;16.60;15.90;;;;;;;;;;5093796;28;20243;-75
2021/12/05 16:05:20;;;;;;;15.50;14.90;;;;;;;;;;5093863;28;20186;-76
2021/12/05 16:07:48;;;;;;;15.17;14.47;;;;;;;;;;5093746;28;20270;-75
2021/12/05 16:10:18;;;;;;;15.10;14.50;;;;;;;;;;5093592;28;20217;-76
2021/12/05 16:12:46;;;;;;;15.50;14.60;;;;;;;;;;5093539;28;20285;-75
2021/12/05 16:15:14;;;;;;;16.13;15.37;;;;;;;;;;5093250;28;20237;-75
2021/12/05 16:17:41;;;;;;;20.83;19.20;;;;;;;;;;5093234;28;20748;-75
2021/12/05 16:20:17;;;;;;;19.50;18.23;;;;;;;;;;5093190;28;20668;-75
2021/12/05 16:23:04;;;;;;;17.30;16.17;;;;;;;;;;5093107;28;20280;-75
2021/12/05 16:25:31;;;;;;;20.43;18.93;;;;;;;;;;5093423;28;20193;-75
2021/12/05 16:28:02;;;;;;;18.00;17.10;;;;;;;;;;5092971;28;20631;-76
2021/12/05 16:30:30;;;;;;;20.60;18.73;;;;;;;;;;5093491;28;20253;-76
2021/12/05 16:32:57;;;;;;;16.63;15.60;;;;;;;;;;5093161;28;20572;-76
2021/12/05 16:35:31;;;;;;;18.80;17.60;;;;;;;;;;5093170;28;20252;-76
2021/12/05 16:37:57;;;;;;;19.50;18.13;;;;;;;;;;5092356;28;20186;-75
2021/12/05 16:40:26;;;;;;;17.50;16.50;;;;;;;;;;5093075;28;20619;-75
2021/12/05 16:43:07;;;;;;;20.53;18.93;;;;;;;;;;5093095;28;20236;-74
2021/12/05 16:45:34;;;;;;;18.63;17.47;;;;;;;;;;5092779;28;20201;-75
2021/12/05 16:48:01;;;;;;;21.20;18.73;;;;;;;;;;5092660;28;20198;-75
2021/12/05 16:50:28;;;;;;;19.00;17.47;;;;;;;;;;5092838;28;20221;-76
2021/12/05 16:52:55;;;;;;;17.47;16.43;;;;;;;;;;5092925;28;20278;-76
2021/12/05 16:55:25;;;;;;;19.73;18.43;;;;;;;;;;5092555;28;20578;-74
2021/12/05 16:57:59;;;;;;;15.43;14.83;;;;;;;;;;5092600;28;20648;-76
2021/12/05 17:00:27;;;;;;;17.07;16.27;;;;;;;;;;5092811;28;20190;-76
2021/12/05 17:02:54;;;;;;;16.53;15.83;;;;;;;;;;5092464;28;20259;-76
2021/12/05 17:05:23;;;;;;;16.80;16.00;;;;;;;;;;5092421;28;20742;-76
2021/12/05 17:07:56;;;;;;;14.53;13.93;;;;;;;;;;5092679;28;20226;-75
2021/12/05 17:10:31;;;;;;;16.13;15.23;;;;;;;;;;5092687;28;20190;-76
2021/12/05 17:13:08;;;;;;;16.97;15.47;;;;;;;;;;5092248;28;20675;-76
2021/12/05 17:15:35;;;;;;;17.63;16.47;;;;;;;;;;5092619;28;20235;-75
2021/12/05 17:18:03;;;;;;;15.87;15.07;;;;;;;;;;5092219;28;20276;-76
2021/12/05 17:20:31;;;;;;;15.83;15.13;;;;;;;;;;5092214;28;20190;-76
2021/12/05 17:23:01;;;;;;;15.20;14.60;;;;;;;;;;5092189;28;20224;-76
2021/12/05 17:25:33;;;;;;;14.90;14.30;;;;;;;;;;5092523;28;20259;-75
2021/12/05 17:28:03;;;;;;;16.70;15.80;;;;;;;;;;5092436;28;20186;-75
2021/12/05 17:30:30;;;;;;;19.20;16.17;;;;;;;;;;5092331;28;20229;-75
2021/12/05 17:32:56;;;;;;;15.43;14.53;;;;;;;;;;5092350;28;20194;-76
2021/12/05 17:35:25;;;;;;;13.83;13.33;;;;;;;;;;5092073;28;20284;-76
2021/12/05 17:37:52;;;;;;;13.93;13.43;;;;;;;;;;5092362;28;20248;-76
2021/12/05 17:40:19;;;;;;;18.30;16.77;;;;;;;;;;5092292;28;20198;-76
2021/12/05 17:42:46;;;;;;;13.60;12.90;;;;;;;;;;5091994;28;20229;-75
2021/12/05 17:45:15;;;;;;;16.03;15.20;;;;;;;;;;5091959;28;20229;-76
2021/12/05 17:47:42;;;;;;;15.23;14.63;;;;;;;;;;5092274;28;20244;-75
2021/12/05 17:50:10;;;;;;;16.97;15.93;;;;;;;;;;5092692;28;20656;-76
2021/12/05 17:52:37;;;;;;;16.77;15.87;;;;;;;;;;5096256;28;20229;-76
2021/12/05 17:55:09;;;;;;;13.77;13.27;;;;;;;;;;5095991;28;20198;-76
2021/12/05 17:57:41;;;;;;;18.53;17.13;;;;;;;;;;5096227;28;20606;-76
2021/12/05 18:00:20;;;;;;;18.33;16.83;;;;;;;;;;5095964;28;20221;-75
2021/12/05 18:02:53;;;;;;;17.93;16.40;;;;;;;;;;5096188;28;20563;-77
2021/12/05 18:05:22;;;;;;;17.50;16.30;;;;;;;;;;5095853;28;20190;-75
2021/12/05 18:07:49;;;;;;;16.60;15.33;;;;;;;;;;5095670;28;20198;-76
2021/12/05 18:10:17;;;;;;;18.63;17.37;;;;;;;;;;5095632;28;20609;-76
2021/12/05 18:12:45;;;;;;;16.50;14.90;;;;;;;;;;5095858;28;20257;-76
2021/12/05 18:15:15;;;;;;;17.43;16.17;;;;;;;;;;5095628;28;20236;-75
2021/12/05 18:17:42;;;;;;;15.27;14.67;;;;;;;;;;5095543;28;20703;-77
2021/12/05 18:20:13;;;;;;;18.83;17.50;;;;;;;;;;5095838;28;20255;-76
2021/12/05 18:22:40;;;;;;;16.33;15.30;;;;;;;;;;5095470;28;20197;-74
2021/12/05 18:25:09;;;;;;;16.70;15.87;;;;;;;;;;5095728;28;20194;-76
2021/12/05 18:27:35;;;;;;;18.70;17.43;;;;;;;;;;5095664;28;20255;-76
2021/12/05 18:30:02;;;;;;;16.13;15.23;;;;;;;;;;5095141;28;20233;-75
2021/12/05 18:32:29;;;;;;;16.47;15.50;;;;;;;;;;5095503;28;20229;-75
2021/12/05 18:34:56;;;;;;;17.53;15.50;;;;;;;;;;5095475;28;20205;-75
2021/12/05 18:37:24;;;;;;;16.80;15.67;;;;;;;;;;5095511;28;20664;-77
2021/12/05 18:39:52;;;;;;;14.47;13.80;;;;;;;;;;5095128;28;20194;-75
2021/12/05 18:42:20;;;;;;;13.93;13.27;;;;;;;;;;5095360;28;20196;-75
2021/12/05 18:44:53;;;;;;;17.73;16.30;;;;;;;;;;5095318;28;20312;-76
2021/12/05 18:47:20;;;;;;;14.77;13.93;;;;;;;;;;5095306;28;20247;-76
2021/12/05 18:49:47;;;;;;;13.70;13.20;;;;;;;;;;5094960;28;20681;-76
2021/12/05 18:52:14;;;;;;;13.63;13.10;;;;;;;;;;5095128;28;20269;-76